Time;durP1;ratioP1;P1;durP2;ratioP2;P2;SDS_P1;SDS_P2;PMS_P1;PMS_P2;Temp;Humidity;BMP_temperature;BMP_pressure;BME280_temperature;BME280_humidity;BME280_pressure;Samples;Min_cycle;Max_cycle;Signal;HPM_P1;HPM_P2
2021/12/19 00:01:16;;;;;;;93.03;34.75;;;-0.60;95.60;;;;;;5011261;28;20113;-76
2021/12/19 00:03:57;;;;;;;79.38;31.98;;;-0.50;95.20;;;;;;5010158;28;20084;-75
2021/12/19 00:09:09;;;;;;;117.20;36.45;;;-0.40;96.00;;;;;;5013525;28;20342;-75
2021/12/19 00:11:35;;;;;;;275.65;42.85;;;-0.40;95.30;;;;;;5021994;28;20117;-77
2021/12/19 00:14:02;;;;;;;159.38;41.05;;;-0.40;96.50;;;;;;5012463;28;20081;-76
2021/12/19 00:16:29;;;;;;;164.48;40.72;;;-0.50;95.80;;;;;;5014170;28;20103;-76
2021/12/19 00:18:55;;;;;;;135.43;39.33;;;-0.60;95.80;;;;;;5010779;28;20370;-76
2021/12/19 00:21:22;;;;;;;134.50;35.53;;;-0.60;95.30;;;;;;5017604;28;20026;-76
2021/12/19 00:23:50;;;;;;;126.68;36.05;;;-0.60;95.40;;;;;;5017892;28;20026;-76
2021/12/19 00:26:17;;;;;;;145.70;42.85;;;-0.60;94.80;;;;;;5014949;28;20029;-76
2021/12/19 00:28:44;;;;;;;120.88;36.22;;;-0.60;94.40;;;;;;5015852;28;20060;-76
2021/12/19 00:31:10;;;;;;;250.75;44.95;;;-0.60;94.30;;;;;;5016467;28;20678;-75
2021/12/19 00:33:37;;;;;;;272.05;44.42;;;-0.60;94.30;;;;;;5015937;28;20033;-77
2021/12/19 00:36:04;;;;;;;225.85;42.10;;;-0.60;94.20;;;;;;5013346;28;20041;-75
2021/12/19 00:38:30;;;;;;;331.48;42.50;;;-0.70;94.20;;;;;;5014049;28;20057;-77
2021/12/19 00:40:57;;;;;;;363.63;47.63;;;-0.70;93.80;;;;;;5014463;28;20049;-75
2021/12/19 00:43:47;;;;;;;284.40;41.97;;;-0.70;93.40;;;;;;5014269;28;20065;-76
2021/12/19 00:46:16;;;;;;;213.10;43.10;;;-0.80;92.90;;;;;;5014185;28;20026;-75
2021/12/19 00:48:44;;;;;;;459.08;51.67;;;-0.80;92.70;;;;;;5015068;28;20331;-76
2021/12/19 00:51:14;;;;;;;119.40;42.53;;;-0.70;92.50;;;;;;5021206;28;20080;-77
2021/12/19 00:53:40;;;;;;;198.02;41.30;;;-0.70;91.80;;;;;;5019825;28;20331;-77
2021/12/19 00:56:06;;;;;;;442.15;47.22;;;-0.60;92.00;;;;;;5011619;28;20025;-77
2021/12/19 00:58:31;;;;;;;483.75;48.05;;;-0.70;91.80;;;;;;5014972;28;20022;-77
2021/12/19 01:00:57;;;;;;;367.23;46.40;;;-0.80;91.70;;;;;;5011472;28;20076;-77
2021/12/19 01:03:26;;;;;;;416.70;45.22;;;-0.80;91.40;;;;;;5016648;28;20026;-76
2021/12/19 01:05:53;;;;;;;603.10;52.80;;;-0.70;90.70;;;;;;5023556;28;20018;-77
2021/12/19 01:08:19;;;;;;;460.80;47.28;;;-0.80;91.10;;;;;;5013328;28;20105;-77
2021/12/19 01:10:46;;;;;;;316.65;41.25;;;-0.70;90.60;;;;;;5009885;28;20165;-76
2021/12/19 01:13:13;;;;;;;412.23;43.97;;;-0.80;90.70;;;;;;5014921;28;20033;-77
2021/12/19 01:15:39;;;;;;;250.10;36.10;;;-0.70;89.90;;;;;;5015643;28;20359;-77
2021/12/19 01:18:06;;;;;;;110.43;28.55;;;-0.70;90.10;;;;;;5015438;28;20415;-77
2021/12/19 01:20:33;;;;;;;123.50;29.75;;;-0.70;89.30;;;;;;5015804;28;20022;-77
2021/12/19 01:23:00;;;;;;;161.00;31.25;;;-0.70;89.80;;;;;;5015024;28;20022;-77
2021/12/19 01:25:26;;;;;;;359.92;45.92;;;-0.70;89.70;;;;;;5012712;28;20117;-77
2021/12/19 01:27:52;;;;;;;319.13;42.65;;;-0.70;90.40;;;;;;5019953;28;20435;-78
2021/12/19 01:30:18;;;;;;;156.10;34.03;;;-0.80;90.10;;;;;;5019291;28;20057;-77
2021/12/19 01:32:44;;;;;;;172.60;34.08;;;-0.80;89.60;;;;;;5019919;28;20036;-77
2021/12/19 01:35:12;;;;;;;92.45;32.28;;;-0.80;89.60;;;;;;5017711;28;20327;-77
2021/12/19 01:37:38;;;;;;;458.55;44.65;;;-0.70;89.10;;;;;;5017412;28;20370;-77
2021/12/19 01:40:07;;;;;;;271.40;36.80;;;-0.80;89.90;;;;;;5018052;28;20029;-78
2021/12/19 01:42:36;;;;;;;282.05;38.33;;;-0.90;89.50;;;;;;5019367;28;20030;-77
2021/12/19 01:45:05;;;;;;;305.17;39.00;;;-0.90;89.20;;;;;;5018084;28;20026;-77
2021/12/19 01:47:31;;;;;;;206.90;38.38;;;-0.90;89.00;;;;;;5018280;28;20022;-77
2021/12/19 01:49:56;;;;;;;331.15;39.22;;;-0.80;88.60;;;;;;5015393;28;20488;-76
2021/12/19 01:52:23;;;;;;;287.67;37.78;;;-0.80;89.10;;;;;;5012206;28;20024;-77
2021/12/19 01:54:50;;;;;;;296.95;36.75;;;-0.90;89.10;;;;;;5018922;28;20041;-76
2021/12/19 01:57:17;;;;;;;349.67;37.22;;;-1.00;88.80;;;;;;5014247;28;20408;-77
2021/12/19 01:59:42;;;;;;;403.13;41.65;;;-1.00;88.60;;;;;;5018593;28;20062;-77
2021/12/19 02:02:08;;;;;;;392.98;41.22;;;-1.10;88.90;;;;;;5017079;28;20069;-75
2021/12/19 02:04:42;;;;;;;349.15;37.55;;;-1.00;87.90;;;;;;5017982;28;20029;-76
2021/12/19 02:07:09;;;;;;;;;;;-1.00;87.90;;;;;;5012040;28;20026;-76
2021/12/19 02:09:35;;;;;;;128.50;27.75;;;-0.90;87.80;;;;;;5017710;28;20261;-76
2021/12/19 02:12:00;;;;;;;220.27;31.75;;;-0.90;87.80;;;;;;5016910;28;20033;-78
2021/12/19 02:14:26;;;;;;;83.15;26.10;;;-0.80;88.50;;;;;;5019693;28;20033;-78
2021/12/19 02:16:52;;;;;;;198.93;30.85;;;-0.90;88.20;;;;;;5023757;28;20060;-78
2021/12/19 02:19:17;;;;;;;199.23;31.45;;;-0.80;87.80;;;;;;5018384;28;20542;-77
2021/12/19 02:21:43;;;;;;;72.97;24.23;;;-0.90;88.70;;;;;;5016861;28;20029;-78
2021/12/19 02:24:11;;;;;;;59.25;22.42;;;-0.90;88.50;;;;;;5018729;28;20045;-77
2021/12/19 02:26:37;;;;;;;116.53;25.50;;;-1.00;89.00;;;;;;5018548;28;20018;-78
2021/12/19 02:29:04;;;;;;;78.90;24.33;;;-1.20;89.10;;;;;;5017362;28;20066;-77
2021/12/19 02:31:30;;;;;;;80.40;24.35;;;-1.20;88.90;;;;;;5017895;28;20030;-77
2021/12/19 02:34:06;;;;;;;102.32;25.90;;;-1.20;89.00;;;;;;5018338;28;20026;-77
2021/12/19 02:50:07;;;;;;;90.43;23.95;;;-1.10;89.00;;;;;;5018067;28;20056;-77
2021/12/19 02:52:33;;;;;;;147.70;27.88;;;-1.10;88.50;;;;;;5016593;28;20097;-77
2021/12/19 02:54:58;;;;;;;178.20;29.70;;;-1.10;89.50;;;;;;5016568;28;20033;-77
2021/12/19 02:57:26;;;;;;;108.60;28.90;;;-1.10;89.90;;;;;;5017630;28;20034;-77
2021/12/19 02:59:51;;;;;;;130.07;27.30;;;-1.20;89.20;;;;;;5016400;28;20076;-76
2021/12/19 03:02:18;;;;;;;134.68;25.80;;;-1.20;89.50;;;;;;5017851;28;20026;-77
2021/12/19 03:04:56;;;;;;;182.40;27.45;;;-1.20;89.10;;;;;;5016157;28;20037;-76
2021/12/19 03:07:24;;;;;;;120.10;27.10;;;-1.20;89.30;;;;;;5012153;28;20352;-77
2021/12/19 03:20:28;;;;;;;176.05;28.02;;;-1.30;88.70;;;;;;5016875;28;19947;-76
2021/12/19 03:22:54;;;;;;;138.57;27.77;;;-1.20;88.20;;;;;;5012506;28;20382;-77
2021/12/19 03:25:20;;;;;;;167.02;29.13;;;-1.20;88.90;;;;;;5013993;28;20038;-77
2021/12/19 03:27:47;;;;;;;167.88;29.63;;;-1.20;88.50;;;;;;5015368;28;20068;-77
2021/12/19 03:30:13;;;;;;;174.30;31.20;;;-1.20;88.10;;;;;;5012536;28;20053;-78
2021/12/19 03:32:39;;;;;;;75.13;22.65;;;-1.20;88.00;;;;;;5016993;28;20026;-77
2021/12/19 03:35:05;;;;;;;237.55;29.85;;;-1.20;88.10;;;;;;5016573;28;20038;-77
2021/12/19 03:37:31;;;;;;;212.60;30.75;;;-1.10;88.60;;;;;;5009326;28;20481;-78
2021/12/19 03:40:11;;;;;;;243.20;30.45;;;-1.10;88.50;;;;;;5015381;28;20030;-77
2021/12/19 03:42:41;;;;;;;210.55;29.95;;;-1.20;88.40;;;;;;5014360;28;20118;-78
2021/12/19 03:45:10;;;;;;;120.50;27.15;;;-1.20;88.40;;;;;;5011436;28;20113;-77
2021/12/19 03:47:36;;;;;;;210.13;29.38;;;-1.20;88.30;;;;;;5015587;28;20125;-77
2021/12/19 03:50:05;;;;;;;131.63;26.58;;;-1.20;88.00;;;;;;5018698;28;20021;-77
2021/12/19 03:52:32;;;;;;;165.18;27.90;;;-1.20;87.70;;;;;;5023152;28;20037;-76
2021/12/19 03:54:58;;;;;;;157.52;27.27;;;-1.30;88.40;;;;;;5016398;28;20022;-75
2021/12/19 03:57:24;;;;;;;119.30;24.17;;;-1.30;88.30;;;;;;5016581;28;20033;-76
2021/12/19 03:59:49;;;;;;;117.95;26.17;;;-1.40;88.20;;;;;;5015419;28;20018;-76
2021/12/19 04:02:26;;;;;;;103.45;23.23;;;-1.40;88.00;;;;;;5016508;28;20033;-77
2021/12/19 04:04:55;;;;;;;47.38;17.60;;;-1.30;88.30;;;;;;5015051;28;20033;-76
2021/12/19 04:07:21;;;;;;;159.80;24.95;;;-1.30;88.20;;;;;;5030552;28;20112;-77
2021/12/19 04:09:54;;;;;;;150.95;25.70;;;-1.20;88.50;;;;;;5092830;27;1309071;-76
2021/12/19 04:12:28;;;;;;;101.72;21.73;;;-1.20;87.80;;;;;;5122139;28;20111;-76
2021/12/19 04:14:54;;;;;;;53.80;21.05;;;-1.20;88.40;;;;;;5121404;28;20081;-77
2021/12/19 04:17:21;;;;;;;83.82;21.45;;;-1.10;88.00;;;;;;5112232;28;20459;-77
2021/12/19 04:19:46;;;;;;;109.20;21.00;;;-1.10;88.60;;;;;;5113619;28;20109;-77
2021/12/19 04:22:12;;;;;;;223.93;26.92;;;-1.10;89.00;;;;;;5121915;27;20019;-76
2021/12/19 04:24:38;;;;;;;99.32;22.50;;;-1.20;88.70;;;;;;5112748;28;20043;-77
2021/12/19 04:27:12;;;;;;;139.60;23.38;;;-1.30;88.90;;;;;;5117006;28;20016;-75
2021/12/19 04:29:41;;;;;;;171.73;25.00;;;-1.30;88.70;;;;;;5109265;28;20027;-75
2021/12/19 04:32:08;;;;;;;152.82;25.38;;;-1.30;88.40;;;;;;5112495;28;20069;-75
2021/12/19 04:34:34;;;;;;;153.13;22.75;;;-1.30;88.90;;;;;;5115986;28;20028;-76
2021/12/19 04:37:08;;;;;;;221.90;25.67;;;-1.30;89.00;;;;;;5118785;28;20036;-75
2021/12/19 05:06:06;;;;;;;68.13;19.58;;;-1.30;88.40;;;;;;5111467;28;20038;-77
2021/12/19 05:14:07;;;;;;;106.43;21.75;;;-1.40;89.10;;;;;;5115456;28;20451;-77
2021/12/19 05:16:36;;;;;;;60.60;19.33;;;-1.30;88.70;;;;;;5111073;28;20024;-77
2021/12/19 05:19:07;;;;;;;126.38;53.90;;;-1.40;88.90;;;;;;5107212;28;20436;-77
2021/12/19 05:21:37;;;;;;;73.97;29.73;;;-1.40;89.30;;;;;;5096975;28;20063;-77
2021/12/19 05:24:20;;;;;;;122.57;55.40;;;-1.60;90.00;;;;;;5111070;28;20019;-77
2021/12/19 05:26:47;;;;;;;62.08;24.13;;;-1.60;89.70;;;;;;5102973;28;20070;-76
2021/12/19 05:29:13;;;;;;;61.33;25.48;;;-1.60;89.10;;;;;;5095976;28;20024;-76
2021/12/19 05:31:39;;;;;;;33.65;15.18;;;-1.60;89.80;;;;;;5097442;28;20024;-76
2021/12/19 05:34:05;;;;;;;46.28;17.20;;;-1.50;89.10;;;;;;5097767;28;20459;-76
2021/12/19 05:47:24;;;;;;;51.72;17.92;;;-1.70;91.90;;;;;;5088441;28;20027;-77
2021/12/19 05:49:51;;;;;;;54.63;19.88;;;-1.70;90.90;;;;;;5097922;28;20035;-76
2021/12/19 05:52:17;;;;;;;75.95;19.98;;;-1.80;91.80;;;;;;5086434;28;20028;-76
2021/12/19 05:54:43;;;;;;;57.20;18.23;;;-1.80;91.50;;;;;;5092594;28;20038;-76
2021/12/19 05:57:09;;;;;;;76.47;20.30;;;-1.90;91.80;;;;;;5100913;28;20473;-76
2021/12/19 05:59:35;;;;;;;58.78;18.30;;;-1.90;91.60;;;;;;5096595;28;20035;-76
2021/12/19 06:02:01;;;;;;;81.75;20.20;;;-2.00;91.80;;;;;;5096284;28;20450;-76
2021/12/19 06:04:27;;;;;;;96.50;20.65;;;-2.00;91.10;;;;;;5103009;28;20020;-76
2021/12/19 06:06:52;;;;;;;118.53;20.73;;;-2.00;91.40;;;;;;5094623;28;20302;-76
2021/12/19 06:09:18;;;;;;;53.38;18.02;;;-1.90;90.80;;;;;;5103753;28;20043;-76
2021/12/19 06:11:44;;;;;;;75.88;16.15;;;-1.90;91.10;;;;;;5095649;28;20024;-76
2021/12/19 06:14:09;;;;;;;61.85;16.00;;;-1.80;90.60;;;;;;5101637;28;20419;-76
2021/12/19 06:16:35;;;;;;;52.08;17.67;;;-1.70;90.50;;;;;;5096652;28;20020;-77
2021/12/19 06:19:01;;;;;;;100.80;20.52;;;-1.70;91.20;;;;;;5099774;28;20325;-77
2021/12/19 06:21:26;;;;;;;60.30;17.80;;;-1.70;90.90;;;;;;5092746;28;20416;-76
2021/12/19 06:23:52;;;;;;;73.57;17.63;;;-1.80;91.00;;;;;;5098687;28;20024;-76
2021/12/19 06:26:18;;;;;;;58.75;17.50;;;-1.90;91.50;;;;;;5100923;28;20094;-77
2021/12/19 06:28:44;;;;;;;49.50;17.48;;;-1.90;91.30;;;;;;5096924;28;20330;-76
2021/12/19 06:31:09;;;;;;;124.10;19.90;;;-1.90;91.50;;;;;;5096242;28;20016;-77
2021/12/19 06:33:35;;;;;;;42.15;14.82;;;-1.90;91.50;;;;;;5096549;28;20020;-76
2021/12/19 06:36:01;;;;;;;33.13;14.90;;;-2.00;91.60;;;;;;5097623;28;20099;-76
2021/12/19 06:38:27;;;;;;;77.82;16.65;;;-1.90;91.70;;;;;;5096606;28;20028;-76
2021/12/19 06:40:53;;;;;;;38.20;14.88;;;-2.00;91.70;;;;;;5095874;28;20024;-76
2021/12/19 06:43:19;;;;;;;27.98;13.52;;;-2.00;91.90;;;;;;5098055;28;20337;-77
2021/12/19 06:45:45;;;;;;;42.78;14.93;;;-2.00;91.30;;;;;;5098551;28;20030;-77
2021/12/19 06:48:10;;;;;;;52.78;15.60;;;-2.00;91.90;;;;;;5111426;28;20031;-77
2021/12/19 06:50:36;;;;;;;114.45;23.10;;;-1.90;91.60;;;;;;5089177;28;20050;-76
2021/12/19 06:53:02;;;;;;;129.45;23.27;;;-1.90;92.10;;;;;;5095395;28;20043;-76
2021/12/19 06:55:27;;;;;;;110.55;22.92;;;-2.00;92.10;;;;;;5106785;28;20025;-77
2021/12/19 06:57:53;;;;;;;48.60;17.65;;;-2.00;91.50;;;;;;5090534;28;20043;-77
2021/12/19 07:00:22;;;;;;;69.07;18.25;;;-2.00;91.80;;;;;;5102349;28;20030;-76
2021/12/19 07:02:47;;;;;;;181.77;23.33;;;-2.00;91.70;;;;;;5096834;28;20353;-77
2021/12/19 07:05:13;;;;;;;95.18;21.55;;;-2.00;92.10;;;;;;5097509;28;20054;-76
2021/12/19 07:07:39;;;;;;;108.45;23.67;;;-2.10;91.90;;;;;;5111162;27;20081;-76
2021/12/19 07:10:06;;;;;;;141.20;26.02;;;-2.10;91.90;;;;;;5097633;28;20045;-76
2021/12/19 07:12:32;;;;;;;121.88;22.83;;;-2.00;91.10;;;;;;5098487;28;20100;-77
2021/12/19 07:14:59;;;;;;;125.78;22.75;;;-2.00;91.50;;;;;;5099568;28;20078;-77
2021/12/19 07:17:25;;;;;;;94.13;22.60;;;-2.00;91.50;;;;;;5111189;28;20023;-77
2021/12/19 07:19:52;;;;;;;183.23;23.42;;;-2.00;91.40;;;;;;5114695;28;20105;-77
2021/12/19 07:22:18;;;;;;;125.88;23.50;;;-2.00;91.20;;;;;;5094926;28;20028;-77
2021/12/19 07:24:45;;;;;;;70.90;21.08;;;-2.10;91.20;;;;;;5099059;28;20032;-77
2021/12/19 07:27:12;;;;;;;106.50;21.38;;;-2.00;90.80;;;;;;5094854;28;20396;-76
2021/12/19 07:29:38;;;;;;;82.00;19.15;;;-2.10;91.10;;;;;;5108659;28;20489;-77
2021/12/19 07:32:04;;;;;;;88.22;20.73;;;-2.10;91.00;;;;;;5095831;28;20036;-77
2021/12/19 07:34:33;;;;;;;55.53;19.17;;;-2.10;90.50;;;;;;5095034;28;20317;-77
2021/12/19 07:36:59;;;;;;;59.30;20.30;;;-2.10;90.60;;;;;;5095504;28;20038;-76
2021/12/19 07:39:38;;;;;;;110.30;20.20;;;-2.10;90.90;;;;;;5097156;28;20036;-77
2021/12/19 07:42:08;;;;;;;92.88;18.13;;;-2.10;90.90;;;;;;5098037;28;20365;-76
2021/12/19 07:44:34;;;;;;;79.97;19.75;;;-2.00;90.10;;;;;;5094621;28;20032;-76
2021/12/19 07:47:00;;;;;;;45.83;17.92;;;-2.00;91.40;;;;;;5095689;28;20085;-75
2021/12/19 07:49:27;;;;;;;97.47;20.40;;;-2.00;91.50;;;;;;5103329;28;20382;-74
2021/12/19 07:51:59;;;;;;;126.78;21.95;;;-2.00;90.30;;;;;;5095387;28;20360;-75
2021/12/19 07:54:24;;;;;;;51.60;16.10;;;-1.90;91.60;;;;;;5095462;28;20032;-75
2021/12/19 07:56:51;;;;;;;47.78;17.70;;;-1.90;90.60;;;;;;5094064;28;20027;-75
2021/12/19 07:59:18;;;;;;;156.13;21.33;;;-1.80;90.90;;;;;;5095608;28;20489;-76
2021/12/19 08:01:43;;;;;;;50.92;17.88;;;-1.90;91.30;;;;;;5095119;28;20476;-76
2021/12/19 08:04:09;;;;;;;52.63;19.58;;;-1.90;91.70;;;;;;5108541;28;20119;-76
2021/12/19 08:06:35;;;;;;;103.55;19.88;;;-1.80;91.10;;;;;;5100534;28;20058;-77
2021/12/19 08:09:08;;;;;;;54.42;17.58;;;-1.90;92.00;;;;;;5094450;28;20047;-76
2021/12/19 08:11:39;;;;;;;59.60;19.40;;;-1.80;91.60;;;;;;5096759;28;20023;-76
2021/12/19 08:14:13;;;;;;;112.88;19.70;;;-1.70;91.90;;;;;;5093977;28;20115;-76
2021/12/19 08:16:41;;;;;;;61.30;17.70;;;-1.70;92.60;;;;;;5095156;28;20758;-76
2021/12/19 08:19:07;;;;;;;64.70;16.52;;;-1.70;91.90;;;;;;5093631;28;20039;-76
2021/12/19 08:21:34;;;;;;;98.25;16.85;;;-1.70;92.90;;;;;;5099264;28;20063;-76
2021/12/19 08:24:02;;;;;;;56.17;15.88;;;-1.60;92.60;;;;;;5091839;28;20035;-75
2021/12/19 08:26:29;;;;;;;70.15;17.92;;;-1.50;92.60;;;;;;5093022;28;20024;-76
2021/12/19 08:28:55;;;;;;;62.85;16.63;;;-1.50;93.20;;;;;;5094342;28;20073;-76
2021/12/19 08:31:21;;;;;;;74.13;17.45;;;-1.40;92.90;;;;;;5094390;28;20036;-76
2021/12/19 08:33:47;;;;;;;139.38;18.38;;;-1.40;94.40;;;;;;5093760;28;20039;-76
2021/12/19 08:36:13;;;;;;;102.90;17.77;;;-1.50;94.60;;;;;;5095673;28;20024;-76
2021/12/19 08:38:39;;;;;;;51.33;17.63;;;-1.60;96.20;;;;;;5087475;28;20309;-76
2021/12/19 08:41:05;;;;;;;43.85;14.25;;;-1.50;94.60;;;;;;5090706;28;20027;-75
2021/12/19 08:43:31;;;;;;;51.22;15.45;;;-1.30;95.50;;;;;;5093047;28;20047;-75
2021/12/19 08:45:57;;;;;;;48.75;16.73;;;-1.20;96.00;;;;;;5088331;28;20069;-75
2021/12/19 08:48:23;;;;;;;70.28;21.98;;;-1.10;96.90;;;;;;5092585;28;20055;-74
2021/12/19 08:50:51;;;;;;;65.55;20.05;;;-1.00;97.30;;;;;;5091281;28;20020;-74
2021/12/19 08:53:17;;;;;;;49.17;15.77;;;-1.00;97.70;;;;;;5093672;28;20035;-75
2021/12/19 08:55:47;;;;;;;33.88;15.45;;;-0.90;98.00;;;;;;5097559;28;20020;-75
2021/12/19 08:58:13;;;;;;;39.58;16.10;;;-0.80;98.00;;;;;;5091551;28;20023;-74
2021/12/19 09:00:38;;;;;;;34.08;17.38;;;-0.70;98.00;;;;;;5095787;28;20032;-76
2021/12/19 09:03:05;;;;;;;49.80;15.50;;;-0.50;98.00;;;;;;5093774;28;20035;-75
2021/12/19 09:05:32;;;;;;;46.13;14.85;;;-0.50;98.00;;;;;;5094790;28;20043;-76
2021/12/19 09:07:58;;;;;;;43.40;17.20;;;-0.70;98.00;;;;;;5091797;28;20034;-76
2021/12/19 09:10:25;;;;;;;37.15;16.33;;;-0.70;98.00;;;;;;5096827;28;20032;-76
2021/12/19 09:12:51;;;;;;;34.78;14.25;;;-0.40;98.00;;;;;;5096899;28;20024;-75
2021/12/19 09:15:17;;;;;;;35.55;15.27;;;-0.20;98.00;;;;;;5096036;28;20020;-75
2021/12/19 09:17:43;;;;;;;40.95;22.20;;;-0.10;98.00;;;;;;5096657;28;20125;-76
2021/12/19 09:20:09;;;;;;;38.47;21.75;;;0.00;98.00;;;;;;5090977;28;20433;-75
2021/12/19 09:22:36;;;;;;;33.45;14.40;;;0.60;98.00;;;;;;5095783;28;20024;-75
2021/12/19 09:25:03;;;;;;;19.13;10.35;;;0.90;98.00;;;;;;5096448;28;20028;-75
2021/12/19 09:27:29;;;;;;;19.48;10.80;;;1.00;98.00;;;;;;5095253;28;20413;-75
2021/12/19 09:29:54;;;;;;;22.75;11.60;;;1.10;98.00;;;;;;5100221;28;20031;-76
2021/12/19 09:32:20;;;;;;;25.02;12.63;;;0.90;98.00;;;;;;5098762;28;20400;-76
2021/12/19 09:34:46;;;;;;;29.83;13.65;;;0.90;98.00;;;;;;5100030;28;20032;-76
2021/12/19 09:37:12;;;;;;;35.70;16.50;;;1.00;98.00;;;;;;5094813;28;20070;-76
2021/12/19 09:39:38;;;;;;;42.05;18.25;;;0.70;98.00;;;;;;5103733;28;20308;-76
2021/12/19 09:42:13;;;;;;;83.15;18.65;;;0.50;98.00;;;;;;5101754;28;20039;-76
2021/12/19 09:44:40;;;;;;;45.80;18.95;;;0.30;98.00;;;;;;5102044;28;20023;-76
2021/12/19 09:47:08;;;;;;;69.78;20.10;;;0.00;98.00;;;;;;5101026;27;20024;-76
2021/12/19 09:49:35;;;;;;;83.88;19.05;;;-0.30;98.00;;;;;;5098881;28;20428;-77
2021/12/19 09:52:04;;;;;;;50.95;18.25;;;-0.30;98.00;;;;;;5099120;28;20039;-76
2021/12/19 09:54:31;;;;;;;50.00;20.83;;;-0.30;98.00;;;;;;5099301;28;20028;-76
2021/12/19 09:56:57;;;;;;;70.22;19.17;;;-0.30;98.00;;;;;;5102624;28;20050;-77
2021/12/19 09:59:23;;;;;;;64.28;18.38;;;-0.10;98.00;;;;;;5102987;28;20032;-76
2021/12/19 10:01:51;;;;;;;44.65;18.35;;;0.10;98.00;;;;;;5123655;27;20053;-76
2021/12/19 10:04:38;;;;;;;86.18;21.20;;;0.20;98.00;;;;;;5106786;28;20024;-77
2021/12/19 10:07:09;;;;;;;49.58;18.40;;;0.20;98.00;;;;;;5096671;28;20040;-77
2021/12/19 10:10:03;;;;;;;49.22;17.20;;;0.00;98.00;;;;;;5095505;28;20040;-76
2021/12/19 10:15:11;;;;;;;38.15;17.92;;;-0.40;98.00;;;;;;5097571;28;20026;-77
2021/12/19 10:17:38;;;;;;;45.40;20.13;;;-0.40;98.00;;;;;;5098818;28;20077;-76
2021/12/19 10:20:09;;;;;;;207.07;21.55;;;-0.40;98.00;;;;;;5100924;28;20059;-77
2021/12/19 10:22:40;;;;;;;57.85;20.30;;;-0.60;98.00;;;;;;5096516;28;20059;-77
2021/12/19 10:25:17;;;;;;;72.75;20.88;;;-0.70;98.00;;;;;;5099588;28;20370;-77
2021/12/19 10:27:43;;;;;;;45.20;20.17;;;-0.60;98.00;;;;;;5105612;28;20344;-77
2021/12/19 10:30:13;;;;;;;64.80;20.70;;;-0.40;98.00;;;;;;5095764;28;20035;-76
2021/12/19 10:32:52;;;;;;;34.63;17.05;;;-0.30;98.00;;;;;;5097912;28;20028;-76
2021/12/19 10:35:25;;;;;;;58.75;21.73;;;-0.20;98.00;;;;;;5104809;28;20312;-77
2021/12/19 10:37:51;;;;;;;40.33;21.08;;;-0.10;98.00;;;;;;5095213;28;20027;-77
2021/12/19 10:40:17;;;;;;;36.97;18.05;;;0.10;98.00;;;;;;5096128;28;20097;-77
2021/12/19 10:42:54;;;;;;;39.10;19.35;;;0.40;98.00;;;;;;5095093;28;20032;-76
2021/12/19 10:45:29;;;;;;;39.83;18.98;;;0.40;98.00;;;;;;5095463;28;20028;-75
2021/12/19 10:48:10;;;;;;;79.68;22.02;;;0.60;98.00;;;;;;5097956;28;20028;-76
2021/12/19 10:50:53;;;;;;;45.15;19.65;;;0.40;98.00;;;;;;5095402;28;20078;-76
2021/12/19 10:53:23;;;;;;;42.53;20.40;;;0.20;98.00;;;;;;5091080;28;20103;-76
2021/12/19 10:55:50;;;;;;;46.20;19.42;;;0.00;98.00;;;;;;5094547;28;20034;-76
2021/12/19 10:58:25;;;;;;;43.58;19.48;;;-0.10;98.00;;;;;;5094872;28;20028;-77
2021/12/19 11:01:12;;;;;;;45.08;19.48;;;0.00;98.00;;;;;;5092558;28;20028;-79
2021/12/19 11:03:49;;;;;;;41.00;19.38;;;0.10;98.00;;;;;;5094234;28;20039;-76
2021/12/19 11:06:34;;;;;;;118.63;20.98;;;0.20;98.00;;;;;;5095051;28;20027;-77
2021/12/19 11:09:05;;;;;;;39.03;18.17;;;0.40;98.00;;;;;;5096841;28;20325;-77
2021/12/19 11:11:59;;;;;;;43.15;18.88;;;0.50;98.00;;;;;;5091723;28;20019;-76
2021/12/19 11:14:28;;;;;;;46.13;18.17;;;0.40;98.00;;;;;;5096942;28;20459;-77
2021/12/19 11:16:58;;;;;;;43.58;20.83;;;0.50;98.00;;;;;;5095720;28;20070;-76
2021/12/19 11:19:26;;;;;;;135.02;23.65;;;0.30;98.00;;;;;;5096091;28;20016;-76
2021/12/19 11:21:52;;;;;;;43.08;22.48;;;0.40;98.00;;;;;;5093946;28;20041;-76
2021/12/19 11:24:20;;;;;;;39.53;19.38;;;0.50;98.00;;;;;;5098802;28;20371;-76
2021/12/19 11:26:49;;;;;;;45.40;16.48;;;0.60;98.00;;;;;;5095742;28;20032;-76
2021/12/19 11:29:16;;;;;;;69.25;17.13;;;0.50;98.00;;;;;;5089906;28;20024;-76
2021/12/19 11:31:46;;;;;;;33.30;17.65;;;0.20;98.00;;;;;;5096677;28;20055;-75
2021/12/19 11:35:03;;;;;;;48.15;19.85;;;0.50;98.00;;;;;;5094130;28;20020;-77
2021/12/19 11:37:39;;;;;;;39.58;18.65;;;0.90;98.00;;;;;;5058878;28;20044;-76
2021/12/19 11:40:07;;;;;;;37.72;18.95;;;1.10;98.00;;;;;;5096048;28;20099;-77
2021/12/19 11:42:39;;;;;;;43.33;19.35;;;1.00;98.00;;;;;;5093262;28;20363;-76
2021/12/19 11:48:34;;;;;;;32.47;17.05;;;1.20;98.00;;;;;;5094255;28;20032;-76
2021/12/19 11:51:04;;;;;;;34.83;17.48;;;1.10;98.00;;;;;;5093684;28;20067;-76
2021/12/19 11:53:34;;;;;;;40.70;18.60;;;1.60;98.00;;;;;;5092126;28;20108;-75
2021/12/19 11:56:05;;;;;;;33.60;17.80;;;1.70;98.00;;;;;;5095127;28;20027;-77
2021/12/19 11:58:42;;;;;;;35.70;17.90;;;1.70;98.00;;;;;;5095741;28;20418;-75
2021/12/19 12:01:12;;;;;;;32.95;18.02;;;1.90;98.00;;;;;;5094920;28;20181;-75
2021/12/19 12:03:47;;;;;;;42.75;20.90;;;2.10;98.00;;;;;;5099112;28;20016;-75
2021/12/19 12:06:23;;;;;;;56.08;19.48;;;2.20;98.00;;;;;;5110504;28;20028;-74
2021/12/19 12:09:13;;;;;;;48.10;20.52;;;1.90;98.00;;;;;;5082970;28;20062;-74
2021/12/19 12:12:05;;;;;;;42.72;19.65;;;1.60;98.00;;;;;;5096869;28;20053;-74
2021/12/19 12:14:49;;;;;;;41.80;21.35;;;1.70;98.00;;;;;;5094320;28;20035;-75
2021/12/19 12:17:22;;;;;;;40.58;19.85;;;2.00;98.00;;;;;;5096518;28;20554;-75
2021/12/19 12:19:55;;;;;;;49.03;23.00;;;1.70;98.00;;;;;;5097121;28;20032;-76
2021/12/19 12:22:25;;;;;;;90.65;24.92;;;1.70;98.00;;;;;;5095019;28;20103;-75
2021/12/19 12:25:12;;;;;;;53.35;24.83;;;1.40;98.00;;;;;;5093415;28;20027;-76
2021/12/19 12:27:42;;;;;;;39.38;21.80;;;0.90;98.00;;;;;;5092790;28;20066;-76
2021/12/19 12:30:12;;;;;;;36.55;19.45;;;0.70;98.00;;;;;;5094259;28;20019;-77
2021/12/19 12:32:37;;;;;;;38.95;20.13;;;0.70;98.00;;;;;;5100986;28;20043;-76
2021/12/19 12:35:07;;;;;;;64.72;21.55;;;0.70;98.00;;;;;;5102656;28;20024;-76
2021/12/19 12:37:33;;;;;;;35.90;19.42;;;0.70;98.00;;;;;;5105419;28;20016;-77
2021/12/19 12:40:24;;;;;;;37.95;19.50;;;0.60;98.00;;;;;;5105837;28;20394;-77
2021/12/19 12:42:59;;;;;;;35.35;18.90;;;0.50;98.00;;;;;;5101942;28;20055;-76
2021/12/19 12:45:28;;;;;;;41.33;22.27;;;0.50;98.00;;;;;;5097107;28;20346;-76
2021/12/19 12:47:54;;;;;;;41.40;20.73;;;0.60;98.00;;;;;;5105027;28;20032;-76
2021/12/19 12:50:20;;;;;;;42.67;19.60;;;0.60;98.00;;;;;;5106731;28;20070;-76
2021/12/19 12:52:46;;;;;;;32.00;17.65;;;0.60;98.00;;;;;;5096627;28;20020;-76
2021/12/19 12:55:14;;;;;;;38.17;19.90;;;0.80;98.00;;;;;;5101127;28;20024;-76
2021/12/19 12:57:41;;;;;;;34.80;18.98;;;1.10;98.00;;;;;;5103024;28;20024;-75
2021/12/19 13:00:18;;;;;;;36.38;19.13;;;1.30;98.00;;;;;;5102962;28;20181;-76
2021/12/19 13:02:45;;;;;;;37.60;19.48;;;1.30;98.00;;;;;;5100134;28;20045;-76
2021/12/19 13:05:12;;;;;;;37.05;20.13;;;1.30;98.00;;;;;;5104805;28;20035;-76
2021/12/19 13:07:38;;;;;;;46.08;20.95;;;1.20;98.00;;;;;;5101669;28;20027;-76
2021/12/19 13:10:05;;;;;;;50.08;21.15;;;1.20;98.00;;;;;;5098112;28;20490;-77
2021/12/19 13:12:35;;;;;;;40.40;20.67;;;1.00;98.00;;;;;;5101236;28;20055;-77
2021/12/19 13:15:03;;;;;;;61.80;23.75;;;0.90;98.00;;;;;;5103372;28;20020;-77
2021/12/19 13:17:30;;;;;;;44.20;21.90;;;0.80;98.00;;;;;;5102519;28;20020;-77
2021/12/19 13:20:02;;;;;;;36.65;19.58;;;0.80;98.00;;;;;;5102516;28;20047;-77
2021/12/19 13:22:48;;;;;;;44.72;22.15;;;0.80;98.00;;;;;;5098395;28;20039;-77
2021/12/19 13:25:22;;;;;;;39.35;20.88;;;0.90;98.00;;;;;;5101561;28;20108;-77
2021/12/19 13:28:00;;;;;;;52.28;22.92;;;0.80;98.00;;;;;;5099461;28;20031;-77
2021/12/19 13:30:29;;;;;;;53.97;22.45;;;0.90;98.00;;;;;;5106477;28;20451;-77
2021/12/19 13:32:56;;;;;;;40.22;21.48;;;0.90;98.00;;;;;;5106313;28;20024;-76
2021/12/19 13:35:24;;;;;;;47.13;20.90;;;0.90;98.00;;;;;;5100623;28;20041;-76
2021/12/19 13:37:57;;;;;;;38.67;20.10;;;1.10;98.00;;;;;;5100675;28;20027;-76
2021/12/19 13:40:26;;;;;;;37.22;19.40;;;1.10;98.00;;;;;;5104400;28;20016;-76
2021/12/19 13:42:55;;;;;;;45.28;22.52;;;1.10;98.00;;;;;;5099194;28;20027;-76
2021/12/19 13:45:36;;;;;;;66.25;23.08;;;1.10;98.00;;;;;;5102662;28;20016;-76
2021/12/19 13:48:05;;;;;;;44.33;20.60;;;1.10;98.00;;;;;;5099999;28;20024;-76
2021/12/19 13:50:46;;;;;;;44.72;22.33;;;1.10;98.00;;;;;;5102175;28;20020;-78